sensor_id;sensor_type;location;lat;lon;timestamp;pressure;altitude;pressure_sealevel;temperature;humidity
48874;BME280;66155;46.204;5.220;2023-01-24T00:02:10;99599.19;;;2.87;67.63
48874;BME280;66155;46.204;5.220;2023-01-24T00:07:11;99597.84;;;2.91;67.40
48874;BME280;66155;46.204;5.220;2023-01-24T00:12:11;99592.97;;;2.96;67.27
48874;BME280;66155;46.204;5.220;2023-01-24T00:17:11;99579.38;;;2.87;67.71
48874;BME280;66155;46.204;5.220;2023-01-24T00:22:12;99589.66;;;2.87;67.78
48874;BME280;66155;46.204;5.220;2023-01-24T00:27:12;99593.16;;;2.94;67.50
48874;BME280;66155;46.204;5.220;2023-01-24T00:32:12;99581.78;;;2.89;67.57
48874;BME280;66155;46.204;5.220;2023-01-24T00:37:13;99595.63;;;2.88;67.79
48874;BME280;66155;46.204;5.220;2023-01-24T00:42:13;99609.94;;;2.90;67.44
48874;BME280;66155;46.204;5.220;2023-01-24T00:47:14;99606.28;;;2.84;67.89
48874;BME280;66155;46.204;5.220;2023-01-24T00:52:14;99608.47;;;2.88;67.99
48874;BME280;66155;46.204;5.220;2023-01-24T00:57:14;99608.84;;;2.84;67.85
48874;BME280;66155;46.204;5.220;2023-01-24T01:02:15;99595.16;;;2.84;67.61
48874;BME280;66155;46.204;5.220;2023-01-24T01:07:15;99595.00;;;2.85;67.44
48874;BME280;66155;46.204;5.220;2023-01-24T01:12:15;99604.50;;;2.85;67.66
48874;BME280;66155;46.204;5.220;2023-01-24T01:17:16;99609.97;;;2.82;67.88
48874;BME280;66155;46.204;5.220;2023-01-24T01:22:16;99612.44;;;2.75;67.89
48874;BME280;66155;46.204;5.220;2023-01-24T01:27:17;99615.00;;;2.75;68.15
48874;BME280;66155;46.204;5.220;2023-01-24T01:32:17;99618.22;;;2.77;67.93
48874;BME280;66155;46.204;5.220;2023-01-24T01:37:18;99606.78;;;2.80;68.08
48874;BME280;66155;46.204;5.220;2023-01-24T01:42:18;99635.72;;;2.82;67.73
48874;BME280;66155;46.204;5.220;2023-01-24T01:47:31;99631.72;;;2.79;68.59
48874;BME280;66155;46.204;5.220;2023-01-24T01:52:37;99634.31;;;2.79;68.01
48874;BME280;66155;46.204;5.220;2023-01-24T01:57:39;99634.81;;;2.75;68.50
48874;BME280;66155;46.204;5.220;2023-01-24T02:02:44;99627.88;;;2.75;68.38
48874;BME280;66155;46.204;5.220;2023-01-24T02:07:56;99624.69;;;2.73;68.63
48874;BME280;66155;46.204;5.220;2023-01-24T02:12:57;99626.75;;;2.78;68.12
48874;BME280;66155;46.204;5.220;2023-01-24T02:17:58;99626.47;;;2.73;68.66
48874;BME280;66155;46.204;5.220;2023-01-24T02:23:24;99638.53;;;2.72;68.81
48874;BME280;66155;46.204;5.220;2023-01-24T02:28:28;99633.88;;;2.67;68.73
48874;BME280;66155;46.204;5.220;2023-01-24T02:33:29;99644.41;;;2.58;69.02
48874;BME280;66155;46.204;5.220;2023-01-24T02:38:30;99653.88;;;2.57;69.32
48874;BME280;66155;46.204;5.220;2023-01-24T02:43:30;99644.41;;;2.58;69.27
48874;BME280;66155;46.204;5.220;2023-01-24T02:48:31;99642.63;;;2.58;69.15
48874;BME280;66155;46.204;5.220;2023-01-24T02:53:31;99647.63;;;2.60;69.35
48874;BME280;66155;46.204;5.220;2023-01-24T02:58:32;99641.47;;;2.61;69.03
48874;BME280;66155;46.204;5.220;2023-01-24T03:03:32;99638.28;;;2.59;69.02
48874;BME280;66155;46.204;5.220;2023-01-24T03:08:34;99646.28;;;2.64;68.95
48874;BME280;66155;46.204;5.220;2023-01-24T03:13:35;99641.66;;;2.59;69.24
48874;BME280;66155;46.204;5.220;2023-01-24T03:18:54;99644.47;;;2.50;69.37
48874;BME280;66155;46.204;5.220;2023-01-24T03:24:13;99650.41;;;2.50;69.07
48874;BME280;66155;46.204;5.220;2023-01-24T03:29:32;99641.44;;;2.46;69.18
48874;BME280;66155;46.204;5.220;2023-01-24T03:34:50;99638.88;;;2.38;69.31
48874;BME280;66155;46.204;5.220;2023-01-24T03:39:51;99642.94;;;2.32;69.82
48874;BME280;66155;46.204;5.220;2023-01-24T03:44:58;99648.78;;;2.26;69.87
48874;BME280;66155;46.204;5.220;2023-01-24T03:49:58;99653.31;;;2.16;70.23
48874;BME280;66155;46.204;5.220;2023-01-24T03:55:17;99659.78;;;2.12;69.98
48874;BME280;66155;46.204;5.220;2023-01-24T04:00:18;99663.31;;;2.02;70.49
48874;BME280;66155;46.204;5.220;2023-01-24T04:05:19;99658.38;;;2.01;70.18
48874;BME280;66155;46.204;5.220;2023-01-24T04:10:21;99664.94;;;2.03;70.36
48874;BME280;66155;46.204;5.220;2023-01-24T04:15:25;99664.31;;;2.01;70.59
48874;BME280;66155;46.204;5.220;2023-01-24T04:20:27;99664.31;;;2.01;70.32
48874;BME280;66155;46.204;5.220;2023-01-24T04:25:28;99667.19;;;1.98;70.83
48874;BME280;66155;46.204;5.220;2023-01-24T04:30:28;99664.94;;;2.03;70.67
48874;BME280;66155;46.204;5.220;2023-01-24T04:35:29;99675.84;;;2.05;70.78
48874;BME280;66155;46.204;5.220;2023-01-24T04:40:30;99679.66;;;2.09;70.62
48874;BME280;66155;46.204;5.220;2023-01-24T04:45:30;99688.31;;;2.17;70.48
48874;BME280;66155;46.204;5.220;2023-01-24T04:50:32;99675.97;;;2.12;70.88
48874;BME280;66155;46.204;5.220;2023-01-24T04:55:34;99685.34;;;2.05;70.69
48874;BME280;66155;46.204;5.220;2023-01-24T05:00:35;99691.94;;;1.99;70.77
48874;BME280;66155;46.204;5.220;2023-01-24T05:05:35;99700.13;;;1.95;71.02
48874;BME280;66155;46.204;5.220;2023-01-24T05:10:35;99704.16;;;1.97;71.22
48874;BME280;66155;46.204;5.220;2023-01-24T05:15:36;99702.06;;;2.01;70.63
48874;BME280;66155;46.204;5.220;2023-01-24T05:20:36;99705.13;;;1.96;70.93
48874;BME280;66155;46.204;5.220;2023-01-24T05:25:37;99709.78;;;1.84;71.61
48874;BME280;66155;46.204;5.220;2023-01-24T05:30:37;99721.06;;;1.83;72.03
48874;BME280;66155;46.204;5.220;2023-01-24T05:35:38;99716.72;;;1.84;70.98
48874;BME280;66155;46.204;5.220;2023-01-24T05:40:39;99724.41;;;1.84;71.31
48874;BME280;66155;46.204;5.220;2023-01-24T05:45:40;99730.34;;;1.84;70.96
48874;BME280;66155;46.204;5.220;2023-01-24T05:50:40;99734.06;;;1.82;71.10
48874;BME280;66155;46.204;5.220;2023-01-24T05:55:40;99727.00;;;1.76;71.35
48874;BME280;66155;46.204;5.220;2023-01-24T06:00:41;99732.13;;;1.76;70.88
48874;BME280;66155;46.204;5.220;2023-01-24T06:05:49;99737.63;;;1.73;71.31
48874;BME280;66155;46.204;5.220;2023-01-24T06:10:49;99742.09;;;1.70;70.82
48874;BME280;66155;46.204;5.220;2023-01-24T06:15:50;99744.03;;;1.68;70.56
48874;BME280;66155;46.204;5.220;2023-01-24T06:20:50;99750.13;;;1.67;70.09
48874;BME280;66155;46.204;5.220;2023-01-24T06:25:51;99745.31;;;1.64;70.18
48874;BME280;66155;46.204;5.220;2023-01-24T06:31:03;99749.97;;;1.61;70.36
48874;BME280;66155;46.204;5.220;2023-01-24T06:41:17;99771.00;;;1.56;70.30
48874;BME280;66155;46.204;5.220;2023-01-24T06:46:17;99770.66;;;1.51;70.28
48874;BME280;66155;46.204;5.220;2023-01-24T06:51:18;99782.09;;;1.48;70.21
48874;BME280;66155;46.204;5.220;2023-01-24T06:56:18;99782.56;;;1.44;70.49
48874;BME280;66155;46.204;5.220;2023-01-24T07:01:18;99795.09;;;1.39;70.49
48874;BME280;66155;46.204;5.220;2023-01-24T07:06:19;99805.50;;;1.37;70.07
48874;BME280;66155;46.204;5.220;2023-01-24T07:11:22;99818.50;;;1.36;69.92
48874;BME280;66155;46.204;5.220;2023-01-24T07:16:24;99820.09;;;1.28;70.56
48874;BME280;66155;46.204;5.220;2023-01-24T07:21:24;99828.75;;;1.27;70.50
48874;BME280;66155;46.204;5.220;2023-01-24T07:26:25;99837.59;;;1.33;70.33
48874;BME280;66155;46.204;5.220;2023-01-24T07:31:25;99842.41;;;1.36;70.11
48874;BME280;66155;46.204;5.220;2023-01-24T07:36:26;99844.53;;;1.41;70.47
48874;BME280;66155;46.204;5.220;2023-01-24T07:47:23;99857.34;;;1.41;70.85
48874;BME280;66155;46.204;5.220;2023-01-24T07:52:24;99857.69;;;1.46;70.68
48874;BME280;66155;46.204;5.220;2023-01-24T07:57:24;99875.81;;;1.44;70.58
48874;BME280;66155;46.204;5.220;2023-01-24T08:02:25;99886.88;;;1.45;70.73
48874;BME280;66155;46.204;5.220;2023-01-24T08:07:25;99883.69;;;1.51;70.83
48874;BME280;66155;46.204;5.220;2023-01-24T08:12:26;99887.19;;;1.42;71.56
48874;BME280;66155;46.204;5.220;2023-01-24T08:17:27;99893.16;;;1.50;71.17
48874;BME280;66155;46.204;5.220;2023-01-24T08:22:27;99893.00;;;1.52;72.05
48874;BME280;66155;46.204;5.220;2023-01-24T08:27:28;99901.31;;;1.38;72.59
48874;BME280;66155;46.204;5.220;2023-01-24T08:32:28;99913.69;;;1.42;72.06
48874;BME280;66155;46.204;5.220;2023-01-24T08:37:28;99932.06;;;1.64;71.50
48874;BME280;66155;46.204;5.220;2023-01-24T08:42:29;99937.84;;;1.82;70.93
48874;BME280;66155;46.204;5.220;2023-01-24T08:47:29;99940.63;;;1.97;70.56
48874;BME280;66155;46.204;5.220;2023-01-24T08:52:29;99953.31;;;2.07;70.50
48874;BME280;66155;46.204;5.220;2023-01-24T08:57:30;99956.22;;;2.12;70.41
48874;BME280;66155;46.204;5.220;2023-01-24T09:02:30;99949.94;;;2.23;70.12
48874;BME280;66155;46.204;5.220;2023-01-24T09:07:33;99963.44;;;2.25;70.12
48874;BME280;66155;46.204;5.220;2023-01-24T09:12:36;99964.09;;;2.19;70.71
48874;BME280;66155;46.204;5.220;2023-01-24T09:17:37;99956.53;;;2.34;70.30
48874;BME280;66155;46.204;5.220;2023-01-24T09:22:39;99963.13;;;2.53;69.89
48874;BME280;66155;46.204;5.220;2023-01-24T09:27:40;99965.34;;;2.56;69.99
48874;BME280;66155;46.204;5.220;2023-01-24T09:32:43;99971.28;;;2.81;69.41
48874;BME280;66155;46.204;5.220;2023-01-24T09:37:44;99981.50;;;3.05;68.66
48874;BME280;66155;46.204;5.220;2023-01-24T09:42:56;99976.97;;;3.16;68.83
48874;BME280;66155;46.204;5.220;2023-01-24T09:48:05;99982.19;;;2.99;69.40
48874;BME280;66155;46.204;5.220;2023-01-24T09:53:16;99998.09;;;3.03;69.10
48874;BME280;66155;46.204;5.220;2023-01-24T09:58:36;99998.03;;;3.19;69.02
48874;BME280;66155;46.204;5.220;2023-01-24T10:03:40;99996.72;;;3.32;68.85
48874;BME280;66155;46.204;5.220;2023-01-24T10:09:09;100010.91;;;3.28;69.53
48874;BME280;66155;46.204;5.220;2023-01-24T10:24:36;100024.78;;;3.97;68.22
48874;BME280;66155;46.204;5.220;2023-01-24T10:29:38;100019.91;;;4.26;67.78
48874;BME280;66155;46.204;5.220;2023-01-24T10:34:42;100017.31;;;4.49;67.86
48874;BME280;66155;46.204;5.220;2023-01-24T10:39:43;100025.59;;;4.67;67.78
48874;BME280;66155;46.204;5.220;2023-01-24T10:44:44;100018.41;;;4.92;67.32
48874;BME280;66155;46.204;5.220;2023-01-24T10:49:53;100014.88;;;5.08;66.75
48874;BME280;66155;46.204;5.220;2023-01-24T10:54:58;100014.84;;;5.38;66.88
48874;BME280;66155;46.204;5.220;2023-01-24T11:05:36;100013.22;;;6.03;63.87
48874;BME280;66155;46.204;5.220;2023-01-24T11:10:41;100013.91;;;6.34;64.21
48874;BME280;66155;46.204;5.220;2023-01-24T11:15:47;100016.16;;;6.15;62.75
48874;BME280;66155;46.204;5.220;2023-01-24T11:21:04;100018.13;;;6.35;62.41
48874;BME280;66155;46.204;5.220;2023-01-24T11:26:06;100005.47;;;6.25;63.59
48874;BME280;66155;46.204;5.220;2023-01-24T11:31:35;99994.25;;;6.39;62.02
48874;BME280;66155;46.204;5.220;2023-01-24T11:36:41;99985.66;;;6.60;62.75
48874;BME280;66155;46.204;5.220;2023-01-24T11:41:54;99988.84;;;6.62;60.50
48874;BME280;66155;46.204;5.220;2023-01-24T11:53:00;99980.41;;;6.82;60.34
48874;BME280;66155;46.204;5.220;2023-01-24T11:57:55;99978.16;;;7.00;59.93
48874;BME280;66155;46.204;5.220;2023-01-24T12:09:02;99965.34;;;6.64;60.19
48874;BME280;66155;46.204;5.220;2023-01-24T12:25:07;99959.28;;;6.22;60.62
48874;BME280;66155;46.204;5.220;2023-01-24T12:30:36;99964.22;;;6.17;60.91
48874;BME280;66155;46.204;5.220;2023-01-24T12:35:38;99967.22;;;5.99;61.42
48874;BME280;66155;46.204;5.220;2023-01-24T12:46:19;99961.84;;;6.43;60.01
48874;BME280;66155;46.204;5.220;2023-01-24T12:51:58;99960.47;;;6.76;59.11
48874;BME280;66155;46.204;5.220;2023-01-24T12:57:12;99963.25;;;6.46;60.27
48874;BME280;66155;46.204;5.220;2023-01-24T13:02:26;99953.00;;;6.59;60.11
48874;BME280;66155;46.204;5.220;2023-01-24T13:13:00;99945.75;;;7.18;59.54
48874;BME280;66155;46.204;5.220;2023-01-24T13:23:27;99945.13;;;7.09;58.51
48874;BME280;66155;46.204;5.220;2023-01-24T13:34:03;99952.25;;;7.62;56.23
48874;BME280;66155;46.204;5.220;2023-01-24T13:39:05;99961.25;;;6.76;58.59
48874;BME280;66155;46.204;5.220;2023-01-24T13:54:42;99967.41;;;6.19;60.12
48874;BME280;66155;46.204;5.220;2023-01-24T14:04:57;99967.97;;;7.40;56.52
48874;BME280;66155;46.204;5.220;2023-01-24T14:09:59;99978.56;;;7.46;56.74
48874;BME280;66155;46.204;5.220;2023-01-24T14:20:35;99965.25;;;12.57;46.65
48874;BME280;66155;46.204;5.220;2023-01-24T14:30:46;99965.88;;;14.65;41.86
48874;BME280;66155;46.204;5.220;2023-01-24T14:35:56;99964.28;;;15.52;39.93
48874;BME280;66155;46.204;5.220;2023-01-24T14:40:58;99968.09;;;17.17;37.17
48874;BME280;66155;46.204;5.220;2023-01-24T14:46:09;99968.81;;;16.16;39.48
48874;BME280;66155;46.204;5.220;2023-01-24T14:51:16;99973.47;;;15.77;40.05
48874;BME280;66155;46.204;5.220;2023-01-24T14:56:17;99971.50;;;16.64;36.41
48874;BME280;66155;46.204;5.220;2023-01-24T15:06:24;99977.88;;;17.37;37.48
48874;BME280;66155;46.204;5.220;2023-01-24T15:11:27;99981.06;;;13.95;42.85
48874;BME280;66155;46.204;5.220;2023-01-24T15:16:36;99978.41;;;15.46;39.28
48874;BME280;66155;46.204;5.220;2023-01-24T15:21:39;99982.31;;;15.93;38.74
48874;BME280;66155;46.204;5.220;2023-01-24T15:26:43;99970.16;;;17.04;37.22
48874;BME280;66155;46.204;5.220;2023-01-24T15:31:48;99981.94;;;16.91;37.54
48874;BME280;66155;46.204;5.220;2023-01-24T15:36:59;99989.31;;;15.11;38.81
48874;BME280;66155;46.204;5.220;2023-01-24T15:42:05;99997.47;;;11.54;46.32
48874;BME280;66155;46.204;5.220;2023-01-24T15:47:24;99993.28;;;10.29;48.08
48874;BME280;66155;46.204;5.220;2023-01-24T15:52:43;100001.88;;;9.07;50.28
48874;BME280;66155;46.204;5.220;2023-01-24T15:57:43;100010.94;;;8.51;51.76
48874;BME280;66155;46.204;5.220;2023-01-24T16:02:44;100012.41;;;7.86;52.88
48874;BME280;66155;46.204;5.220;2023-01-24T16:07:44;100013.66;;;7.41;54.04
48874;BME280;66155;46.204;5.220;2023-01-24T16:12:46;100016.38;;;6.92;54.72
48874;BME280;66155;46.204;5.220;2023-01-24T16:17:49;100018.84;;;6.50;56.13
48874;BME280;66155;46.204;5.220;2023-01-24T16:22:49;100021.31;;;6.15;56.56
48874;BME280;66155;46.204;5.220;2023-01-24T16:27:50;100022.59;;;5.89;57.57
48874;BME280;66155;46.204;5.220;2023-01-24T16:32:55;100025.78;;;5.70;57.80
48874;BME280;66155;46.204;5.220;2023-01-24T16:37:55;100026.84;;;5.61;58.22
48874;BME280;66155;46.204;5.220;2023-01-24T16:42:56;100038.31;;;5.37;58.16
48874;BME280;66155;46.204;5.220;2023-01-24T16:47:57;100036.16;;;5.25;58.48
48874;BME280;66155;46.204;5.220;2023-01-24T16:52:57;100038.19;;;5.15;60.29
48874;BME280;66155;46.204;5.220;2023-01-24T16:57:58;100038.53;;;4.97;60.45
48874;BME280;66155;46.204;5.220;2023-01-24T17:02:59;100046.91;;;4.99;59.64
48874;BME280;66155;46.204;5.220;2023-01-24T17:07:59;100054.47;;;4.86;60.58
48874;BME280;66155;46.204;5.220;2023-01-24T17:13:00;100052.81;;;4.70;61.87
48874;BME280;66155;46.204;5.220;2023-01-24T17:18:00;100062.06;;;4.64;61.49
48874;BME280;66155;46.204;5.220;2023-01-24T17:23:01;100059.88;;;4.53;61.95
48874;BME280;66155;46.204;5.220;2023-01-24T17:28:01;100068.31;;;4.47;63.41
48874;BME280;66155;46.204;5.220;2023-01-24T17:33:02;100079.69;;;4.37;63.03
48874;BME280;66155;46.204;5.220;2023-01-24T17:38:02;100083.09;;;4.30;64.20
48874;BME280;66155;46.204;5.220;2023-01-24T17:43:04;100084.25;;;4.27;63.29
48874;BME280;66155;46.204;5.220;2023-01-24T17:48:05;100093.31;;;4.23;63.65
48874;BME280;66155;46.204;5.220;2023-01-24T17:53:05;100097.16;;;4.27;63.12
48874;BME280;66155;46.204;5.220;2023-01-24T17:58:06;100092.16;;;4.26;63.67
48874;BME280;66155;46.204;5.220;2023-01-24T18:03:06;100091.69;;;4.22;63.78
48874;BME280;66155;46.204;5.220;2023-01-24T18:08:09;100093.00;;;4.18;63.29
48874;BME280;66155;46.204;5.220;2023-01-24T18:13:10;100083.66;;;4.17;63.82
48874;BME280;66155;46.204;5.220;2023-01-24T18:18:11;100096.56;;;4.17;63.80
48874;BME280;66155;46.204;5.220;2023-01-24T18:23:11;100092.31;;;4.24;64.18
48874;BME280;66155;46.204;5.220;2023-01-24T18:28:11;100096.13;;;4.36;63.47
48874;BME280;66155;46.204;5.220;2023-01-24T18:33:12;100091.84;;;4.52;63.47
48874;BME280;66155;46.204;5.220;2023-01-24T18:38:12;100087.88;;;4.64;63.69
48874;BME280;66155;46.204;5.220;2023-01-24T18:43:12;100091.72;;;4.68;63.59
48874;BME280;66155;46.204;5.220;2023-01-24T18:48:13;100093.94;;;4.71;63.77
48874;BME280;66155;46.204;5.220;2023-01-24T18:53:13;100097.44;;;4.79;63.65
48874;BME280;66155;46.204;5.220;2023-01-24T18:58:14;100093.88;;;4.80;63.49
48874;BME280;66155;46.204;5.220;2023-01-24T19:03:14;100097.44;;;4.79;63.75
48874;BME280;66155;46.204;5.220;2023-01-24T19:08:15;100093.53;;;4.83;63.77
48874;BME280;66155;46.204;5.220;2023-01-24T19:13:15;100088.81;;;4.86;63.49
48874;BME280;66155;46.204;5.220;2023-01-24T19:18:16;100083.94;;;4.91;63.43
48874;BME280;66155;46.204;5.220;2023-01-24T19:23:17;100080.41;;;4.92;63.52
48874;BME280;66155;46.204;5.220;2023-01-24T19:28:18;100078.50;;;4.86;63.44
48874;BME280;66155;46.204;5.220;2023-01-24T19:33:18;100079.72;;;4.75;64.09
48874;BME280;66155;46.204;5.220;2023-01-24T19:38:19;100089.81;;;4.85;64.02
48874;BME280;66155;46.204;5.220;2023-01-24T19:43:19;100074.94;;;4.87;63.79
48874;BME280;66155;46.204;5.220;2023-01-24T19:48:19;100086.06;;;4.88;64.36
48874;BME280;66155;46.204;5.220;2023-01-24T19:53:20;100073.75;;;4.75;64.55
48874;BME280;66155;46.204;5.220;2023-01-24T19:58:20;100090.03;;;4.75;64.09
48874;BME280;66155;46.204;5.220;2023-01-24T20:03:20;100088.72;;;4.80;64.68
48874;BME280;66155;46.204;5.220;2023-01-24T20:08:21;100095.16;;;4.84;64.54
48874;BME280;66155;46.204;5.220;2023-01-24T20:13:21;100086.34;;;4.93;64.21
48874;BME280;66155;46.204;5.220;2023-01-24T20:18:22;100089.28;;;4.90;64.53
48874;BME280;66155;46.204;5.220;2023-01-24T20:23:22;100085.38;;;4.94;64.42
48874;BME280;66155;46.204;5.220;2023-01-24T20:28:23;100090.91;;;4.91;64.65
48874;BME280;66155;46.204;5.220;2023-01-24T20:33:23;100077.97;;;4.91;64.25
48874;BME280;66155;46.204;5.220;2023-01-24T20:38:23;100083.03;;;4.84;65.09
48874;BME280;66155;46.204;5.220;2023-01-24T20:43:24;100089.28;;;4.67;65.42
48874;BME280;66155;46.204;5.220;2023-01-24T20:48:24;100096.38;;;4.50;66.00
48874;BME280;66155;46.204;5.220;2023-01-24T20:53:25;100093.16;;;4.48;65.92
48874;BME280;66155;46.204;5.220;2023-01-24T20:58:26;100097.22;;;4.42;66.10
48874;BME280;66155;46.204;5.220;2023-01-24T21:03:26;100115.72;;;4.46;66.13
48874;BME280;66155;46.204;5.220;2023-01-24T21:08:29;100110.63;;;4.37;66.57
48874;BME280;66155;46.204;5.220;2023-01-24T21:13:31;100109.03;;;4.36;66.14
48874;BME280;66155;46.204;5.220;2023-01-24T21:18:32;100111.66;;;4.28;66.26
48874;BME280;66155;46.204;5.220;2023-01-24T21:23:33;100110.69;;;4.29;66.79
48874;BME280;66155;46.204;5.220;2023-01-24T21:28:34;100107.16;;;4.22;66.74
48874;BME280;66155;46.204;5.220;2023-01-24T21:33:35;100118.75;;;4.26;66.35
48874;BME280;66155;46.204;5.220;2023-01-24T21:38:35;100102.19;;;4.21;66.93
48874;BME280;66155;46.204;5.220;2023-01-24T21:43:35;100103.97;;;4.20;66.66
48874;BME280;66155;46.204;5.220;2023-01-24T21:48:36;100111.88;;;4.18;66.96
48874;BME280;66155;46.204;5.220;2023-01-24T21:53:55;100103.97;;;4.20;66.88
48874;BME280;66155;46.204;5.220;2023-01-24T21:59:02;100100.06;;;4.24;66.86
48874;BME280;66155;46.204;5.220;2023-01-24T22:04:02;100107.75;;;4.32;66.79
48874;BME280;66155;46.204;5.220;2023-01-24T22:09:03;100095.81;;;4.31;66.49
48874;BME280;66155;46.204;5.220;2023-01-24T22:14:04;100104.72;;;4.29;66.59
48874;BME280;66155;46.204;5.220;2023-01-24T22:19:09;100106.78;;;4.33;66.49
48874;BME280;66155;46.204;5.220;2023-01-24T22:24:32;100104.31;;;4.40;66.75
48874;BME280;66155;46.204;5.220;2023-01-24T22:29:34;100099.63;;;4.44;66.37
48874;BME280;66155;46.204;5.220;2023-01-24T22:34:34;100103.84;;;4.36;66.78
48874;BME280;66155;46.204;5.220;2023-01-24T22:39:35;100104.09;;;4.27;67.24
48874;BME280;66155;46.204;5.220;2023-01-24T22:44:35;100104.81;;;4.12;67.86
48874;BME280;66155;46.204;5.220;2023-01-24T22:49:36;100106.06;;;4.16;67.25
48874;BME280;66155;46.204;5.220;2023-01-24T22:54:37;100099.81;;;4.11;67.23
48874;BME280;66155;46.204;5.220;2023-01-24T22:59:37;100092.84;;;4.19;66.79
48874;BME280;66155;46.204;5.220;2023-01-24T23:04:38;100097.72;;;4.14;67.47
48874;BME280;66155;46.204;5.220;2023-01-24T23:09:39;100088.69;;;4.10;67.88
48874;BME280;66155;46.204;5.220;2023-01-24T23:14:39;100093.84;;;4.10;67.53
48874;BME280;66155;46.204;5.220;2023-01-24T23:19:58;100094.50;;;4.12;67.49
48874;BME280;66155;46.204;5.220;2023-01-24T23:25:17;100091.91;;;4.12;67.60
48874;BME280;66155;46.204;5.220;2023-01-24T23:30:26;100085.84;;;4.05;68.25
48874;BME280;66155;46.204;5.220;2023-01-24T23:35:29;100086.09;;;4.10;67.66
48874;BME280;66155;46.204;5.220;2023-01-24T23:40:30;100085.13;;;4.11;67.81
48874;BME280;66155;46.204;5.220;2023-01-24T23:45:30;100081.59;;;4.12;67.27
48874;BME280;66155;46.204;5.220;2023-01-24T23:50:31;100084.38;;;4.03;67.73
48874;BME280;66155;46.204;5.220;2023-01-24T23:55:31;100084.59;;;3.93;68.48
